createdAt,value
2018-08-30T00:00:20.085Z,27.37
2018-08-30T00:02:48.483Z,20.80
2018-08-30T00:05:16.966Z,21.77
2018-08-30T00:07:45.127Z,18.00
2018-08-30T00:10:13.290Z,20.55
2018-08-30T00:12:41.683Z,17.37
2018-08-30T00:15:09.846Z,17.17
2018-08-30T00:17:38.006Z,13.78
2018-08-30T00:20:06.162Z,15.35
2018-08-30T00:22:34.338Z,12.88
2018-08-30T00:25:02.500Z,12.80
2018-08-30T00:27:30.665Z,11.97
2018-08-30T00:29:58.824Z,14.70
2018-08-30T00:32:26.985Z,12.30
2018-08-30T00:34:55.159Z,10.82
2018-08-30T00:37:23.360Z,12.65
2018-08-30T00:39:51.513Z,9.63
2018-08-30T00:42:19.664Z,7.10
2018-08-30T00:44:47.880Z,6.78
2018-08-30T00:47:21.342Z,5.35
2018-08-30T00:49:50.329Z,7.90
2018-08-30T00:52:18.805Z,5.58
2018-08-30T00:54:47.276Z,5.75
2018-08-30T00:57:15.877Z,5.92
2018-08-30T00:59:44.149Z,5.85
2018-08-30T01:02:12.286Z,7.00
2018-08-30T01:04:40.416Z,4.87
2018-08-30T01:07:08.537Z,4.70
2018-08-30T01:09:36.726Z,4.47
2018-08-30T01:12:04.861Z,5.35
2018-08-30T01:14:32.998Z,6.37
2018-08-30T01:17:01.143Z,6.65
2018-08-30T01:19:29.277Z,6.53
2018-08-30T01:21:57.426Z,5.12
2018-08-30T01:24:25.545Z,7.00
2018-08-30T01:26:53.723Z,9.13
2018-08-30T01:29:21.886Z,8.08
2018-08-30T01:31:50.021Z,10.03
2018-08-30T01:34:18.148Z,9.35
2018-08-30T01:36:46.293Z,9.45
2018-08-30T01:39:14.422Z,10.08
2018-08-30T01:41:43.225Z,9.98
2018-08-30T01:44:12.296Z,9.18
2018-08-30T01:46:40.458Z,10.53
2018-08-30T01:49:08.589Z,9.45
2018-08-30T01:51:36.742Z,10.32
2018-08-30T01:54:05.013Z,11.08
2018-08-30T01:56:33.149Z,12.23
2018-08-30T01:59:01.290Z,13.13
2018-08-30T02:01:29.429Z,13.68
2018-08-30T02:03:57.622Z,9.63
2018-08-30T02:06:25.814Z,10.28
2018-08-30T02:08:53.956Z,10.95
2018-08-30T02:11:22.098Z,11.22
2018-08-30T02:13:50.245Z,11.18
2018-08-30T02:16:18.371Z,13.45
2018-08-30T02:18:46.500Z,12.85
2018-08-30T02:21:14.646Z,12.40
2018-08-30T02:23:42.777Z,14.10
2018-08-30T02:26:10.923Z,17.95
2018-08-30T02:28:39.054Z,12.85
2018-08-30T02:31:07.187Z,13.08
2018-08-30T02:33:35.350Z,11.70
2018-08-30T02:36:03.487Z,11.75
2018-08-30T02:38:31.613Z,9.58
2018-08-30T02:40:59.754Z,13.65
2018-08-30T02:43:27.974Z,14.65
2018-08-30T02:45:56.140Z,14.98
2018-08-30T02:48:24.301Z,11.30
2018-08-30T02:50:52.429Z,15.28
2018-08-30T02:53:20.561Z,16.02
2018-08-30T02:55:48.770Z,13.68
2018-08-30T02:58:16.907Z,16.10
2018-08-30T03:00:45.088Z,15.93
2018-08-30T03:03:13.223Z,15.60
2018-08-30T03:05:41.456Z,18.42
2018-08-30T03:08:09.800Z,15.23
2018-08-30T03:10:38.045Z,17.82
2018-08-30T03:13:06.173Z,13.90
2018-08-30T03:15:34.314Z,15.10
2018-08-30T03:18:02.486Z,16.77
2018-08-30T03:20:30.632Z,17.15
2018-08-30T03:22:58.766Z,19.40
2018-08-30T03:25:26.905Z,17.85
2018-08-30T03:27:55.047Z,16.93
2018-08-30T03:30:23.263Z,17.20
2018-08-30T03:32:51.352Z,16.73
2018-08-30T03:35:19.515Z,16.07
2018-08-30T03:37:47.686Z,14.05
2018-08-30T03:40:15.837Z,15.45
2018-08-30T03:42:43.973Z,13.00
2018-08-30T03:45:12.111Z,16.07
2018-08-30T03:47:40.238Z,17.27
2018-08-30T03:50:08.377Z,17.75
2018-08-30T03:52:36.546Z,15.55
2018-08-30T03:55:04.878Z,15.95
2018-08-30T03:57:32.929Z,15.60
2018-08-30T04:00:01.078Z,14.10
2018-08-30T04:02:29.293Z,17.35
2018-08-30T04:04:57.529Z,16.75
2018-08-30T04:07:25.670Z,15.03
2018-08-30T04:09:53.822Z,16.45
2018-08-30T04:12:21.965Z,15.65
2018-08-30T04:14:50.131Z,14.83
2018-08-30T04:17:18.262Z,13.35
2018-08-30T04:19:46.470Z,16.20
2018-08-30T04:22:14.606Z,16.30
2018-08-30T04:24:42.741Z,13.18
2018-08-30T04:27:10.908Z,15.43
2018-08-30T04:29:39.024Z,15.35
2018-08-30T04:32:07.174Z,14.80
2018-08-30T04:34:35.309Z,15.72
2018-08-30T04:37:03.483Z,17.10
2018-08-30T04:39:31.652Z,17.23
2018-08-30T04:41:59.798Z,14.25
2018-08-30T04:44:27.942Z,17.77
2018-08-30T04:46:56.081Z,15.38
2018-08-30T04:49:24.214Z,17.45
2018-08-30T04:51:52.369Z,15.40
2018-08-30T04:54:20.530Z,16.32
2018-08-30T04:56:48.730Z,15.85
2018-08-30T04:59:16.904Z,14.78
2018-08-30T05:01:45.222Z,18.57
2018-08-30T05:04:13.357Z,16.05
2018-08-30T05:06:41.514Z,17.70
2018-08-30T05:09:11.034Z,17.02
2018-08-30T05:11:39.214Z,12.60
2018-08-30T05:14:07.689Z,14.47
2018-08-30T05:16:36.082Z,13.95
2018-08-30T05:19:04.470Z,14.50
2018-08-30T05:21:32.902Z,14.05
2018-08-30T05:24:01.247Z,14.07
2018-08-30T05:26:29.436Z,13.58
2018-08-30T05:28:57.622Z,14.63
2018-08-30T05:31:26.305Z,15.93
2018-08-30T05:33:54.484Z,15.40
2018-08-30T05:36:22.773Z,14.18
2018-08-30T05:38:50.981Z,13.28
2018-08-30T05:41:19.123Z,13.72
2018-08-30T05:43:47.301Z,16.55
2018-08-30T05:46:15.502Z,15.13
2018-08-30T05:48:43.667Z,13.22
2018-08-30T05:51:11.926Z,14.10
2018-08-30T05:53:40.085Z,13.62
2018-08-30T05:56:08.229Z,13.13
2018-08-30T05:58:36.471Z,14.00
2018-08-30T06:01:04.631Z,15.58
2018-08-30T06:03:32.781Z,15.08
2018-08-30T06:06:00.941Z,13.10
2018-08-30T06:08:29.202Z,12.80
2018-08-30T06:10:57.278Z,14.18
2018-08-30T06:13:25.433Z,12.70
2018-08-30T06:15:53.581Z,12.73
2018-08-30T06:18:21.739Z,11.20
2018-08-30T06:20:49.889Z,13.60
2018-08-30T06:23:18.025Z,10.18
2018-08-30T06:25:46.207Z,10.32
2018-08-30T06:28:14.333Z,10.18
2018-08-30T06:30:42.481Z,13.28
2018-08-30T06:33:10.617Z,11.73
2018-08-30T06:35:38.757Z,11.18
2018-08-30T06:38:06.907Z,10.58
2018-08-30T06:40:35.059Z,11.22
2018-08-30T06:43:03.204Z,9.75
2018-08-30T06:45:31.423Z,9.30
2018-08-30T06:47:59.659Z,8.03
2018-08-30T06:50:27.852Z,11.38
2018-08-30T06:52:56.044Z,9.80
2018-08-30T06:55:24.229Z,11.28
2018-08-30T06:57:52.457Z,8.08
2018-08-30T07:00:20.661Z,8.90
2018-08-30T07:02:48.845Z,8.00
2018-08-30T07:05:17.133Z,9.20
2018-08-30T07:07:45.327Z,9.05
2018-08-30T07:10:13.485Z,8.13
2018-08-30T07:12:41.689Z,7.70
2018-08-30T07:15:09.843Z,7.45
2018-08-30T07:17:38.033Z,7.65
2018-08-30T07:20:06.219Z,7.10
2018-08-30T07:22:34.423Z,8.15
2018-08-30T07:25:02.591Z,9.43
2018-08-30T07:27:30.785Z,7.85
2018-08-30T07:29:58.964Z,7.75
2018-08-30T07:32:27.150Z,8.25
2018-08-30T07:34:55.421Z,8.08
2018-08-30T07:37:23.531Z,6.42
2018-08-30T07:39:51.686Z,6.55
2018-08-30T07:42:19.867Z,5.60
2018-08-30T07:44:48.035Z,7.33
2018-08-30T07:47:16.256Z,5.58
2018-08-30T07:49:44.359Z,6.95
2018-08-30T07:52:12.609Z,5.97
2018-08-30T07:54:41.081Z,6.37
2018-08-30T07:57:10.057Z,5.85
2018-08-30T07:59:38.270Z,5.20
2018-08-30T08:02:06.422Z,5.85
2018-08-30T08:04:34.562Z,5.03
2018-08-30T08:07:02.810Z,5.85
2018-08-30T08:09:30.959Z,6.10
2018-08-30T08:11:59.134Z,5.85
2018-08-30T08:14:27.242Z,6.65
2018-08-30T08:16:55.578Z,5.90
2018-08-30T08:19:23.816Z,5.30
2018-08-30T08:21:51.955Z,5.53
2018-08-30T08:24:20.115Z,6.50
2018-08-30T08:26:48.333Z,5.90
2018-08-30T08:29:16.551Z,5.87
2018-08-30T08:31:44.701Z,5.70
2018-08-30T08:34:13.107Z,5.28
2018-08-30T08:36:41.271Z,6.35
2018-08-30T08:39:09.420Z,4.50
2018-08-30T08:41:37.564Z,5.72
2018-08-30T08:44:05.751Z,4.60
2018-08-30T08:46:33.897Z,4.80
2018-08-30T08:49:02.444Z,4.85
2018-08-30T08:51:30.597Z,5.45
2018-08-30T08:53:58.923Z,4.08
2018-08-30T08:56:27.187Z,3.50
2018-08-30T08:58:55.480Z,4.85
2018-08-30T09:01:23.538Z,4.47
2018-08-30T09:03:51.629Z,4.10
2018-08-30T09:06:19.778Z,4.83
2018-08-30T09:08:47.932Z,5.12
2018-08-30T09:11:16.112Z,4.42
2018-08-30T09:13:44.336Z,4.20
2018-08-30T09:16:12.514Z,3.47
2018-08-30T09:18:40.642Z,5.75
2018-08-30T09:21:08.799Z,3.62
2018-08-30T09:23:36.934Z,4.05
2018-08-30T09:26:05.295Z,5.35
2018-08-30T09:28:33.417Z,4.47
2018-08-30T09:31:01.647Z,4.35
2018-08-30T09:33:29.771Z,5.25
2018-08-30T09:35:57.938Z,3.25
2018-08-30T09:38:26.069Z,3.95
2018-08-30T09:40:54.218Z,3.60
2018-08-30T09:43:22.361Z,4.62
2018-08-30T09:45:50.577Z,3.83
2018-08-30T09:48:18.705Z,4.20
2018-08-30T09:50:46.856Z,5.30
2018-08-30T09:53:14.994Z,3.65
2018-08-30T09:55:43.438Z,3.60
2018-08-30T09:58:11.517Z,3.65
2018-08-30T10:00:44.946Z,4.35
2018-08-30T10:03:13.082Z,4.08
2018-08-30T10:05:41.232Z,5.17
2018-08-30T10:08:09.431Z,3.60
2018-08-30T10:10:37.580Z,3.70
2018-08-30T10:13:05.791Z,3.05
2018-08-30T10:15:33.932Z,3.45
2018-08-30T10:18:02.235Z,3.40
2018-08-30T10:20:30.407Z,4.05
2018-08-30T10:22:58.604Z,2.95
2018-08-30T10:25:26.810Z,3.17
2018-08-30T10:27:54.878Z,3.95
2018-08-30T10:30:23.083Z,4.03
2018-08-30T10:32:51.237Z,4.53
2018-08-30T10:35:19.422Z,4.65
2018-08-30T10:37:47.552Z,3.30
2018-08-30T10:40:15.682Z,3.33
2018-08-30T10:42:43.829Z,2.98
2018-08-30T10:45:11.982Z,3.60
2018-08-30T10:47:40.199Z,4.42
2018-08-30T10:50:08.345Z,4.40
2018-08-30T10:52:36.505Z,4.00
2018-08-30T10:55:04.893Z,4.03
2018-08-30T10:57:33.062Z,3.52
2018-08-30T11:00:01.226Z,2.77
2018-08-30T11:02:29.445Z,3.50
2018-08-30T11:04:57.621Z,2.42
2018-08-30T11:07:25.762Z,3.33
2018-08-30T11:09:53.971Z,3.33
2018-08-30T11:12:22.070Z,3.45
2018-08-30T11:14:50.222Z,2.72
2018-08-30T11:17:18.369Z,3.40
2018-08-30T11:19:46.516Z,3.15
2018-08-30T11:22:14.785Z,2.90
2018-08-30T11:24:42.942Z,3.70
2018-08-30T11:27:11.071Z,2.70
2018-08-30T11:29:39.218Z,3.40
2018-08-30T11:32:07.477Z,2.45
2018-08-30T11:34:35.616Z,2.62
2018-08-30T11:37:03.789Z,3.00
2018-08-30T11:39:31.962Z,3.30
2018-08-30T11:42:00.085Z,2.30
2018-08-30T11:44:28.236Z,2.12
2018-08-30T11:46:56.374Z,3.08
2018-08-30T11:49:24.542Z,2.90
2018-08-30T11:51:52.725Z,2.85
2018-08-30T11:54:20.924Z,3.42
2018-08-30T11:56:49.122Z,4.05
2018-08-30T11:59:17.350Z,3.83
2018-08-30T12:01:45.604Z,2.92
2018-08-30T12:04:13.780Z,2.20
2018-08-30T12:06:41.941Z,2.22
2018-08-30T12:09:10.793Z,2.77
2018-08-30T12:11:39.730Z,3.58
2018-08-30T12:14:07.863Z,2.65
2018-08-30T12:16:36.018Z,2.55
2018-08-30T12:19:04.438Z,5.60
2018-08-30T12:21:32.570Z,3.90
2018-08-30T12:24:00.729Z,3.12
2018-08-30T12:26:28.916Z,2.95
2018-08-30T12:28:57.097Z,2.42
2018-08-30T12:31:25.320Z,2.70
2018-08-30T12:33:53.510Z,3.27
2018-08-30T12:36:21.577Z,3.05
2018-08-30T12:38:49.776Z,2.37
2018-08-30T12:41:17.930Z,3.60
2018-08-30T12:43:46.103Z,3.45
2018-08-30T12:46:14.305Z,3.20
2018-08-30T12:48:42.480Z,3.12
2018-08-30T12:51:10.766Z,2.83
2018-08-30T12:53:38.898Z,2.87
2018-08-30T12:56:07.109Z,3.12
2018-08-30T12:58:35.324Z,2.60
2018-08-30T13:01:03.622Z,2.45
2018-08-30T13:03:31.744Z,1.60
2018-08-30T13:06:00.059Z,1.87
2018-08-30T13:08:28.383Z,2.40
2018-08-30T13:10:56.587Z,2.17
2018-08-30T13:13:24.670Z,2.50
2018-08-30T13:15:52.894Z,1.80
2018-08-30T13:18:21.115Z,1.92
2018-08-30T13:20:49.293Z,2.08
2018-08-30T13:23:17.473Z,1.75
2018-08-30T13:25:45.796Z,1.70
2018-08-30T13:28:14.231Z,1.80
2018-08-30T13:30:42.384Z,1.85
2018-08-30T13:33:10.596Z,2.22
2018-08-30T13:35:38.683Z,2.20
2018-08-30T13:38:06.964Z,2.17
2018-08-30T13:40:35.284Z,2.25
2018-08-30T13:43:03.437Z,2.27
2018-08-30T13:45:31.391Z,1.87
2018-08-30T13:47:59.700Z,1.60
2018-08-30T13:50:27.832Z,1.80
2018-08-30T13:52:56.046Z,1.90
2018-08-30T13:55:24.403Z,2.58
2018-08-30T13:57:52.952Z,2.08
2018-08-30T14:00:21.103Z,1.85
2018-08-30T14:02:49.015Z,2.25
2018-08-30T14:05:17.095Z,2.37
2018-08-30T14:07:45.172Z,2.00
2018-08-30T14:10:15.002Z,2.42
2018-08-30T14:12:43.046Z,2.00
2018-08-30T14:15:11.395Z,2.42
2018-08-30T14:17:39.201Z,3.22
2018-08-30T14:20:07.412Z,1.82
2018-08-30T14:22:35.534Z,1.72
2018-08-30T14:25:03.745Z,1.80
2018-08-30T14:27:31.866Z,1.60
2018-08-30T14:30:00.327Z,1.80
2018-08-30T14:32:28.477Z,2.33
2018-08-30T14:34:56.842Z,1.75
2018-08-30T14:37:25.043Z,2.20
2018-08-30T14:39:53.294Z,1.75
2018-08-30T14:42:22.229Z,1.98
2018-08-30T14:44:50.535Z,1.50
2018-08-30T14:47:19.185Z,1.67
2018-08-30T14:49:47.291Z,1.70
2018-08-30T14:52:15.497Z,1.30
2018-08-30T14:54:43.670Z,1.90
2018-08-30T14:57:11.838Z,1.35
2018-08-30T14:59:40.035Z,1.32
2018-08-30T15:02:08.182Z,1.50
2018-08-30T15:04:36.333Z,1.70
2018-08-30T15:07:04.578Z,1.50
2018-08-30T15:09:32.742Z,1.85
2018-08-30T15:12:00.898Z,1.75
2018-08-30T15:14:29.046Z,1.82
2018-08-30T15:16:57.223Z,2.95
2018-08-30T15:19:25.454Z,1.72
2018-08-30T15:21:53.630Z,1.87
2018-08-30T15:24:21.786Z,1.50
2018-08-30T15:26:50.006Z,1.30
2018-08-30T15:29:18.115Z,1.80
2018-08-30T15:31:46.289Z,2.10
2018-08-30T15:34:14.464Z,3.10
2018-08-30T15:36:42.620Z,1.60
2018-08-30T15:39:11.232Z,1.45
2018-08-30T15:41:39.462Z,1.55
2018-08-30T15:44:07.639Z,1.90
2018-08-30T15:46:35.793Z,1.85
2018-08-30T15:49:03.956Z,1.40
2018-08-30T15:51:32.247Z,2.22
2018-08-30T15:54:00.409Z,1.50
2018-08-30T15:56:28.671Z,1.60
2018-08-30T15:58:56.830Z,1.87
2018-08-30T16:01:24.972Z,1.90
2018-08-30T16:03:53.169Z,1.80
2018-08-30T16:06:21.316Z,1.37
2018-08-30T16:08:49.564Z,1.82
2018-08-30T16:11:17.712Z,1.82
2018-08-30T16:13:45.830Z,1.40
2018-08-30T16:16:13.975Z,1.67
2018-08-30T16:18:42.258Z,1.50
2018-08-30T16:21:10.322Z,1.80
2018-08-30T16:23:38.697Z,1.60
2018-08-30T16:26:06.974Z,1.75
2018-08-30T16:28:35.704Z,1.70
2018-08-30T16:31:03.898Z,1.72
2018-08-30T16:33:32.185Z,1.70
2018-08-30T16:36:00.398Z,1.92
2018-08-30T16:38:28.750Z,2.27
2018-08-30T16:40:56.974Z,2.17
2018-08-30T16:43:25.182Z,1.80
2018-08-30T16:45:53.335Z,4.40
2018-08-30T16:48:21.622Z,5.08
2018-08-30T16:50:49.780Z,3.45
2018-08-30T16:53:18.077Z,1.80
2018-08-30T16:55:46.133Z,2.00
2018-08-30T16:58:14.357Z,1.67
2018-08-30T17:00:42.491Z,1.80
2018-08-30T17:03:10.718Z,2.00
2018-08-30T17:05:38.965Z,1.45
2018-08-30T17:08:07.113Z,1.50
2018-08-30T17:10:35.348Z,1.80
2018-08-30T17:13:03.418Z,1.77
2018-08-30T17:15:31.575Z,1.85
2018-08-30T17:17:59.828Z,1.50
2018-08-30T17:20:46.536Z,1.37
2018-08-30T17:23:14.728Z,1.42
2018-08-30T17:25:43.577Z,2.27
2018-08-30T17:28:12.027Z,1.40
2018-08-30T17:30:40.525Z,2.05
2018-08-30T17:33:08.787Z,1.27
2018-08-30T17:35:36.941Z,2.27
2018-08-30T17:38:05.184Z,2.27
2018-08-30T17:40:33.403Z,1.30
2018-08-30T17:43:01.577Z,1.37
2018-08-30T17:45:29.862Z,1.22
2018-08-30T17:47:57.903Z,1.15
2018-08-30T17:50:26.466Z,1.55
2018-08-30T17:52:54.475Z,1.45
2018-08-30T17:55:22.727Z,1.27
2018-08-30T17:57:50.843Z,1.20
2018-08-30T18:00:18.987Z,1.22
2018-08-30T18:02:47.594Z,1.50
2018-08-30T18:05:15.986Z,1.90
2018-08-30T18:07:44.464Z,1.77
2018-08-30T18:10:12.612Z,1.95
2018-08-30T18:12:41.003Z,1.80
2018-08-30T18:15:12.044Z,1.00
2018-08-30T18:17:40.185Z,1.60
2018-08-30T18:20:08.351Z,1.70
2018-08-30T18:22:36.501Z,1.80
2018-08-30T18:25:04.728Z,1.85
2018-08-30T18:27:32.906Z,1.80
2018-08-30T18:30:01.324Z,1.92
2018-08-30T18:32:29.462Z,1.40
2018-08-30T18:34:57.646Z,1.50
2018-08-30T18:37:25.781Z,1.57
2018-08-30T18:39:53.943Z,1.57
2018-08-30T18:42:22.155Z,1.50
2018-08-30T18:44:50.237Z,1.27
2018-08-30T18:47:18.417Z,1.98
2018-08-30T18:49:46.612Z,1.82
2018-08-30T18:52:14.794Z,1.50
2018-08-30T18:54:42.970Z,10.32
2018-08-30T18:57:11.126Z,6.90
2018-08-30T18:59:39.448Z,4.05
2018-08-30T19:02:07.610Z,1.82
2018-08-30T19:04:35.855Z,1.77
2018-08-30T19:07:04.064Z,1.10
2018-08-30T19:09:32.235Z,1.70
2018-08-30T19:12:00.453Z,1.22
2018-08-30T19:14:28.671Z,1.52
2018-08-30T19:17:02.129Z,1.42
2018-08-30T19:19:30.289Z,1.40
2018-08-30T19:21:58.492Z,1.35
2018-08-30T19:24:32.284Z,1.12
2018-08-30T19:27:00.426Z,1.37
2018-08-30T19:29:28.582Z,1.30
2018-08-30T19:31:56.736Z,1.35
2018-08-30T19:34:24.894Z,1.70
2018-08-30T19:36:53.053Z,15.40
2018-08-30T19:39:21.226Z,9.65
2018-08-30T19:41:49.382Z,3.33
2018-08-30T19:44:17.559Z,2.30
2018-08-30T19:46:45.714Z,2.22
2018-08-30T19:49:13.965Z,2.02
2018-08-30T19:51:42.365Z,1.70
2018-08-30T19:54:10.517Z,1.80
2018-08-30T19:56:38.762Z,1.67
2018-08-30T19:59:06.904Z,2.33
2018-08-30T20:01:35.067Z,1.65
2018-08-30T20:04:03.216Z,1.47
2018-08-30T20:06:31.409Z,2.10
2018-08-30T20:08:59.599Z,1.32
2018-08-30T20:11:27.806Z,1.77
2018-08-30T20:13:55.950Z,1.80
2018-08-30T20:16:24.110Z,1.70
2018-08-30T20:18:52.258Z,1.40
2018-08-30T20:21:20.426Z,1.62
2018-08-30T20:23:48.591Z,1.60
2018-08-30T20:26:16.741Z,1.40
2018-08-30T20:28:44.911Z,1.45
2018-08-30T20:31:13.175Z,1.60
2018-08-30T20:33:41.329Z,1.75
2018-08-30T20:36:09.495Z,2.10
2018-08-30T20:38:37.673Z,1.50
2018-08-30T20:41:05.860Z,1.47
2018-08-30T20:43:34.018Z,2.02
2018-08-30T20:46:02.200Z,1.60
2018-08-30T20:48:30.389Z,1.47
2018-08-30T20:50:58.590Z,1.82
2018-08-30T20:53:26.766Z,1.70
2018-08-30T20:55:54.886Z,1.60
2018-08-30T20:58:23.053Z,1.20
2018-08-30T21:00:51.230Z,1.45
2018-08-30T21:03:19.373Z,1.47
2018-08-30T21:05:47.509Z,1.22
2018-08-30T21:08:15.651Z,1.72
2018-08-30T21:10:43.799Z,1.52
2018-08-30T21:13:11.996Z,1.95
2018-08-30T21:15:40.141Z,1.85
2018-08-30T21:18:08.334Z,1.30
2018-08-30T21:20:36.519Z,1.40
2018-08-30T21:23:04.870Z,1.45
2018-08-30T21:25:32.997Z,1.70
2018-08-30T21:28:01.129Z,1.92
2018-08-30T21:30:29.269Z,1.65
2018-08-30T21:32:57.401Z,1.72
2018-08-30T21:35:25.610Z,1.65
2018-08-30T21:37:53.750Z,1.40
2018-08-30T21:40:21.924Z,1.82
2018-08-30T21:42:50.073Z,1.50
2018-08-30T21:45:18.219Z,1.62
2018-08-30T21:47:46.345Z,1.27
2018-08-30T21:50:14.485Z,1.20
2018-08-30T21:52:42.758Z,1.60
2018-08-30T21:55:10.898Z,1.70
2018-08-30T21:57:39.035Z,1.30
2018-08-30T22:00:07.265Z,1.12
2018-08-30T22:02:35.537Z,1.50
2018-08-30T22:05:03.751Z,1.60
2018-08-30T22:07:32.450Z,1.62
2018-08-30T22:10:00.574Z,1.57
2018-08-30T22:12:28.710Z,1.85
2018-08-30T22:14:56.861Z,1.27
2018-08-30T22:17:24.991Z,1.40
2018-08-30T22:19:53.131Z,1.60
2018-08-30T22:22:21.357Z,1.20
2018-08-30T22:24:49.494Z,1.12
2018-08-30T22:27:17.639Z,1.37
2018-08-30T22:29:45.799Z,1.22
2018-08-30T22:32:13.938Z,1.27
2018-08-30T22:34:42.072Z,1.52
2018-08-30T22:37:10.213Z,1.65
2018-08-30T22:39:38.345Z,1.67
2018-08-30T22:42:06.490Z,1.77
2018-08-30T22:44:34.631Z,1.40
2018-08-30T22:47:02.793Z,1.45
2018-08-30T22:49:30.945Z,1.02
2018-08-30T22:51:59.094Z,1.05
2018-08-30T22:54:27.250Z,1.75
2018-08-30T22:56:55.441Z,1.20
2018-08-30T22:59:23.598Z,1.15
2018-08-30T23:01:51.770Z,1.52
2018-08-30T23:04:20.137Z,1.52
2018-08-30T23:06:48.862Z,1.15
2018-08-30T23:09:16.977Z,1.60
2018-08-30T23:11:45.131Z,1.12
2018-08-30T23:14:13.290Z,1.25
2018-08-30T23:16:41.467Z,1.60
2018-08-30T23:19:09.634Z,1.30
2018-08-30T23:21:37.788Z,1.70
2018-08-30T23:24:06.366Z,1.50
2018-08-30T23:26:34.518Z,1.45
2018-08-30T23:29:02.676Z,1.30
2018-08-30T23:31:30.842Z,1.75
2018-08-30T23:33:59.187Z,1.47
2018-08-30T23:36:27.316Z,1.37
2018-08-30T23:38:55.491Z,1.50
2018-08-30T23:41:23.633Z,1.50
2018-08-30T23:43:51.842Z,1.17
2018-08-30T23:46:19.998Z,1.80
2018-08-30T23:48:48.250Z,1.50
2018-08-30T23:51:16.405Z,1.62
2018-08-30T23:53:44.531Z,1.57
2018-08-30T23:56:12.667Z,1.40
2018-08-30T23:58:52.174Z,1.30
